sensor_id;sensor_type;location;lat;lon;timestamp;P1;durP1;ratioP1;P2;durP2;ratioP2
3175;SDS011;1599;51.564;6.990;2023-04-01T00:01:02;10.00;;;2.43;;
3175;SDS011;1599;51.564;6.990;2023-04-01T00:03:28;6.13;;;2.47;;
3175;SDS011;1599;51.564;6.990;2023-04-01T00:05:56;4.40;;;2.00;;
3175;SDS011;1599;51.564;6.990;2023-04-01T00:08:22;5.43;;;2.30;;
3175;SDS011;1599;51.564;6.990;2023-04-01T00:10:48;10.70;;;3.00;;
3175;SDS011;1599;51.564;6.990;2023-04-01T00:13:14;6.57;;;3.10;;
3175;SDS011;1599;51.564;6.990;2023-04-01T00:15:40;5.93;;;2.67;;
3175;SDS011;1599;51.564;6.990;2023-04-01T00:18:06;5.93;;;2.90;;
3175;SDS011;1599;51.564;6.990;2023-04-01T00:20:33;7.80;;;2.60;;
3175;SDS011;1599;51.564;6.990;2023-04-01T00:28:22;4.80;;;2.90;;
3175;SDS011;1599;51.564;6.990;2023-04-01T00:30:48;6.57;;;2.70;;
3175;SDS011;1599;51.564;6.990;2023-04-01T00:33:14;6.73;;;3.37;;
3175;SDS011;1599;51.564;6.990;2023-04-01T00:35:41;4.77;;;2.53;;
3175;SDS011;1599;51.564;6.990;2023-04-01T00:38:07;5.37;;;3.20;;
3175;SDS011;1599;51.564;6.990;2023-04-01T00:40:43;5.53;;;3.30;;
3175;SDS011;1599;51.564;6.990;2023-04-01T00:43:17;6.63;;;3.00;;
3175;SDS011;1599;51.564;6.990;2023-04-01T00:45:46;6.13;;;3.17;;
3175;SDS011;1599;51.564;6.990;2023-04-01T00:50:42;4.60;;;2.67;;
3175;SDS011;1599;51.564;6.990;2023-04-01T00:53:11;7.60;;;3.40;;
3175;SDS011;1599;51.564;6.990;2023-04-01T00:55:39;7.33;;;3.10;;
3175;SDS011;1599;51.564;6.990;2023-04-01T00:58:07;6.63;;;3.40;;
3175;SDS011;1599;51.564;6.990;2023-04-01T01:00:36;7.60;;;2.77;;
3175;SDS011;1599;51.564;6.990;2023-04-01T01:03:03;5.53;;;2.70;;
3175;SDS011;1599;51.564;6.990;2023-04-01T01:05:36;6.33;;;2.43;;
3175;SDS011;1599;51.564;6.990;2023-04-01T01:08:15;7.70;;;2.67;;
3175;SDS011;1599;51.564;6.990;2023-04-01T01:11:03;6.77;;;2.70;;
3175;SDS011;1599;51.564;6.990;2023-04-01T01:13:40;3.87;;;2.10;;
3175;SDS011;1599;51.564;6.990;2023-04-01T01:16:15;4.60;;;3.00;;
3175;SDS011;1599;51.564;6.990;2023-04-01T01:24:50;4.07;;;3.43;;
3175;SDS011;1599;51.564;6.990;2023-04-01T01:27:26;4.87;;;3.63;;
3175;SDS011;1599;51.564;6.990;2023-04-01T01:35:38;4.23;;;3.13;;
3175;SDS011;1599;51.564;6.990;2023-04-01T01:38:07;3.70;;;2.70;;
3175;SDS011;1599;51.564;6.990;2023-04-01T01:40:36;7.40;;;2.90;;
3175;SDS011;1599;51.564;6.990;2023-04-01T01:43:05;4.67;;;2.67;;
3175;SDS011;1599;51.564;6.990;2023-04-01T01:45:34;7.60;;;2.80;;
3175;SDS011;1599;51.564;6.990;2023-04-01T01:48:03;6.27;;;2.73;;
3175;SDS011;1599;51.564;6.990;2023-04-01T01:50:30;7.27;;;2.87;;
3175;SDS011;1599;51.564;6.990;2023-04-01T01:53:03;5.17;;;2.23;;
3175;SDS011;1599;51.564;6.990;2023-04-01T01:55:34;5.20;;;2.50;;
3175;SDS011;1599;51.564;6.990;2023-04-01T01:58:03;7.70;;;2.50;;
3175;SDS011;1599;51.564;6.990;2023-04-01T02:00:53;5.40;;;2.17;;
3175;SDS011;1599;51.564;6.990;2023-04-01T02:03:21;5.00;;;2.90;;
3175;SDS011;1599;51.564;6.990;2023-04-01T02:05:49;3.53;;;2.27;;
3175;SDS011;1599;51.564;6.990;2023-04-01T02:08:21;3.77;;;2.37;;
3175;SDS011;1599;51.564;6.990;2023-04-01T02:11:01;5.97;;;2.20;;
3175;SDS011;1599;51.564;6.990;2023-04-01T02:13:29;4.20;;;2.20;;
3175;SDS011;1599;51.564;6.990;2023-04-01T02:16:00;4.93;;;2.00;;
3175;SDS011;1599;51.564;6.990;2023-04-01T02:18:29;3.07;;;2.03;;
3175;SDS011;1599;51.564;6.990;2023-04-01T02:20:56;5.60;;;2.20;;
3175;SDS011;1599;51.564;6.990;2023-04-01T02:23:22;5.67;;;2.20;;
3175;SDS011;1599;51.564;6.990;2023-04-01T02:25:48;6.57;;;2.40;;
3175;SDS011;1599;51.564;6.990;2023-04-01T02:28:14;6.83;;;3.00;;
3175;SDS011;1599;51.564;6.990;2023-04-01T02:30:42;8.30;;;2.70;;
3175;SDS011;1599;51.564;6.990;2023-04-01T02:33:16;6.93;;;2.93;;
3175;SDS011;1599;51.564;6.990;2023-04-01T02:35:42;5.23;;;2.90;;
3175;SDS011;1599;51.564;6.990;2023-04-01T02:38:08;4.47;;;3.17;;
3175;SDS011;1599;51.564;6.990;2023-04-01T02:40:47;8.50;;;3.63;;
3175;SDS011;1599;51.564;6.990;2023-04-01T02:43:14;6.93;;;3.30;;
3175;SDS011;1599;51.564;6.990;2023-04-01T02:45:41;7.43;;;3.70;;
3175;SDS011;1599;51.564;6.990;2023-04-01T02:48:07;7.23;;;3.83;;
3175;SDS011;1599;51.564;6.990;2023-04-01T02:50:33;6.17;;;3.90;;
3175;SDS011;1599;51.564;6.990;2023-04-01T02:52:59;10.47;;;4.30;;
3175;SDS011;1599;51.564;6.990;2023-04-01T02:55:25;6.87;;;3.80;;
3175;SDS011;1599;51.564;6.990;2023-04-01T02:57:50;6.37;;;3.67;;
3175;SDS011;1599;51.564;6.990;2023-04-01T03:00:16;12.33;;;4.37;;
3175;SDS011;1599;51.564;6.990;2023-04-01T03:02:42;5.80;;;4.50;;
3175;SDS011;1599;51.564;6.990;2023-04-01T03:05:09;11.13;;;5.27;;
3175;SDS011;1599;51.564;6.990;2023-04-01T03:07:35;11.70;;;5.63;;
3175;SDS011;1599;51.564;6.990;2023-04-01T03:10:00;10.53;;;4.80;;
3175;SDS011;1599;51.564;6.990;2023-04-01T03:12:26;6.90;;;4.63;;
3175;SDS011;1599;51.564;6.990;2023-04-01T03:14:52;9.67;;;4.87;;
3175;SDS011;1599;51.564;6.990;2023-04-01T03:17:17;5.10;;;4.23;;
3175;SDS011;1599;51.564;6.990;2023-04-01T03:19:43;8.37;;;3.73;;
3175;SDS011;1599;51.564;6.990;2023-04-01T03:22:10;7.13;;;4.67;;
3175;SDS011;1599;51.564;6.990;2023-04-01T03:24:36;7.17;;;3.93;;
3175;SDS011;1599;51.564;6.990;2023-04-01T03:27:01;10.30;;;3.50;;
3175;SDS011;1599;51.564;6.990;2023-04-01T03:29:27;4.97;;;3.40;;
3175;SDS011;1599;51.564;6.990;2023-04-01T03:31:52;11.70;;;3.47;;
3175;SDS011;1599;51.564;6.990;2023-04-01T03:34:18;4.70;;;3.63;;
3175;SDS011;1599;51.564;6.990;2023-04-01T03:36:44;6.30;;;3.50;;
3175;SDS011;1599;51.564;6.990;2023-04-01T03:39:10;5.83;;;3.67;;
3175;SDS011;1599;51.564;6.990;2023-04-01T03:41:36;6.37;;;3.97;;
3175;SDS011;1599;51.564;6.990;2023-04-01T03:44:02;5.77;;;3.93;;
3175;SDS011;1599;51.564;6.990;2023-04-01T03:46:37;10.13;;;4.40;;
3175;SDS011;1599;51.564;6.990;2023-04-01T03:49:06;7.57;;;5.03;;
3175;SDS011;1599;51.564;6.990;2023-04-01T03:51:36;7.93;;;4.20;;
3175;SDS011;1599;51.564;6.990;2023-04-01T03:54:06;10.67;;;6.50;;
3175;SDS011;1599;51.564;6.990;2023-04-01T03:56:32;6.20;;;4.40;;
3175;SDS011;1599;51.564;6.990;2023-04-01T03:59:02;11.83;;;6.23;;
3175;SDS011;1599;51.564;6.990;2023-04-01T04:01:28;13.50;;;6.37;;
3175;SDS011;1599;51.564;6.990;2023-04-01T04:03:55;12.07;;;6.13;;
3175;SDS011;1599;51.564;6.990;2023-04-01T04:06:22;13.13;;;5.50;;
3175;SDS011;1599;51.564;6.990;2023-04-01T04:08:48;8.57;;;5.70;;
3175;SDS011;1599;51.564;6.990;2023-04-01T04:11:14;10.57;;;5.97;;
3175;SDS011;1599;51.564;6.990;2023-04-01T04:13:45;13.87;;;5.60;;
3175;SDS011;1599;51.564;6.990;2023-04-01T04:16:25;14.17;;;5.70;;
3175;SDS011;1599;51.564;6.990;2023-04-01T04:18:53;18.77;;;6.10;;
3175;SDS011;1599;51.564;6.990;2023-04-01T04:21:19;8.93;;;5.70;;
3175;SDS011;1599;51.564;6.990;2023-04-01T04:23:46;10.83;;;5.97;;
3175;SDS011;1599;51.564;6.990;2023-04-01T04:26:12;10.20;;;6.37;;
3175;SDS011;1599;51.564;6.990;2023-04-01T04:28:40;14.93;;;6.03;;
3175;SDS011;1599;51.564;6.990;2023-04-01T04:31:06;12.80;;;6.83;;
3175;SDS011;1599;51.564;6.990;2023-04-01T04:33:33;12.70;;;7.03;;
3175;SDS011;1599;51.564;6.990;2023-04-01T04:35:59;8.53;;;5.90;;
3175;SDS011;1599;51.564;6.990;2023-04-01T04:38:26;11.90;;;6.87;;
3175;SDS011;1599;51.564;6.990;2023-04-01T04:40:53;9.60;;;6.60;;
3175;SDS011;1599;51.564;6.990;2023-04-01T04:43:19;11.07;;;6.63;;
3175;SDS011;1599;51.564;6.990;2023-04-01T04:45:45;11.80;;;7.07;;
3175;SDS011;1599;51.564;6.990;2023-04-01T04:48:11;10.70;;;6.70;;
3175;SDS011;1599;51.564;6.990;2023-04-01T04:50:41;10.93;;;7.50;;
3175;SDS011;1599;51.564;6.990;2023-04-01T04:53:11;13.37;;;7.90;;
3175;SDS011;1599;51.564;6.990;2023-04-01T04:55:37;13.73;;;7.70;;
3175;SDS011;1599;51.564;6.990;2023-04-01T04:58:07;16.43;;;7.77;;
3175;SDS011;1599;51.564;6.990;2023-04-01T05:00:33;13.20;;;7.77;;
3175;SDS011;1599;51.564;6.990;2023-04-01T05:02:59;10.80;;;6.80;;
3175;SDS011;1599;51.564;6.990;2023-04-01T05:05:26;10.23;;;6.17;;
3175;SDS011;1599;51.564;6.990;2023-04-01T05:07:52;10.53;;;6.43;;
3175;SDS011;1599;51.564;6.990;2023-04-01T05:10:17;25.60;;;13.50;;
3175;SDS011;1599;51.564;6.990;2023-04-01T05:12:43;9.57;;;6.57;;
3175;SDS011;1599;51.564;6.990;2023-04-01T05:15:09;13.80;;;6.73;;
3175;SDS011;1599;51.564;6.990;2023-04-01T05:17:35;13.60;;;5.57;;
3175;SDS011;1599;51.564;6.990;2023-04-01T05:20:01;9.97;;;5.57;;
3175;SDS011;1599;51.564;6.990;2023-04-01T05:22:27;8.53;;;5.20;;
3175;SDS011;1599;51.564;6.990;2023-04-01T05:24:53;9.13;;;6.37;;
3175;SDS011;1599;51.564;6.990;2023-04-01T05:27:19;10.87;;;5.23;;
3175;SDS011;1599;51.564;6.990;2023-04-01T05:29:45;7.03;;;5.13;;
3175;SDS011;1599;51.564;6.990;2023-04-01T05:32:11;10.97;;;5.37;;
3175;SDS011;1599;51.564;6.990;2023-04-01T05:34:39;13.13;;;6.00;;
3175;SDS011;1599;51.564;6.990;2023-04-01T05:37:11;8.60;;;5.57;;
3175;SDS011;1599;51.564;6.990;2023-04-01T05:39:37;8.63;;;5.10;;
3175;SDS011;1599;51.564;6.990;2023-04-01T05:42:05;8.10;;;5.43;;
3175;SDS011;1599;51.564;6.990;2023-04-01T05:44:32;10.10;;;5.47;;
3175;SDS011;1599;51.564;6.990;2023-04-01T05:47:00;12.30;;;6.03;;
3175;SDS011;1599;51.564;6.990;2023-04-01T05:49:27;11.93;;;5.60;;
3175;SDS011;1599;51.564;6.990;2023-04-01T05:51:57;13.63;;;6.10;;
3175;SDS011;1599;51.564;6.990;2023-04-01T05:57:02;10.93;;;6.70;;
3175;SDS011;1599;51.564;6.990;2023-04-01T05:59:30;10.90;;;6.87;;
3175;SDS011;1599;51.564;6.990;2023-04-01T06:02:29;10.27;;;6.73;;
3175;SDS011;1599;51.564;6.990;2023-04-01T06:05:41;8.90;;;6.43;;
3175;SDS011;1599;51.564;6.990;2023-04-01T06:07:43;13.97;;;7.00;;
3175;SDS011;1599;51.564;6.990;2023-04-01T06:10:16;14.53;;;7.53;;
3175;SDS011;1599;51.564;6.990;2023-04-01T06:12:48;14.70;;;5.97;;
3175;SDS011;1599;51.564;6.990;2023-04-01T06:18:26;9.30;;;5.77;;
3175;SDS011;1599;51.564;6.990;2023-04-01T06:26:17;11.23;;;7.00;;
3175;SDS011;1599;51.564;6.990;2023-04-01T06:55:26;13.60;;;7.83;;
3175;SDS011;1599;51.564;6.990;2023-04-01T06:57:58;10.33;;;7.07;;
3175;SDS011;1599;51.564;6.990;2023-04-01T07:00:30;11.10;;;6.43;;
3175;SDS011;1599;51.564;6.990;2023-04-01T07:05:58;11.07;;;6.83;;
3175;SDS011;1599;51.564;6.990;2023-04-01T07:08:30;9.23;;;5.67;;
3175;SDS011;1599;51.564;6.990;2023-04-01T07:11:03;10.87;;;6.83;;
3175;SDS011;1599;51.564;6.990;2023-04-01T07:13:36;8.40;;;5.80;;
3175;SDS011;1599;51.564;6.990;2023-04-01T07:16:21;10.70;;;6.27;;
3175;SDS011;1599;51.564;6.990;2023-04-01T07:21:54;10.70;;;6.33;;
3175;SDS011;1599;51.564;6.990;2023-04-01T07:24:25;8.77;;;5.27;;
3175;SDS011;1599;51.564;6.990;2023-04-01T07:26:54;8.50;;;6.03;;
3175;SDS011;1599;51.564;6.990;2023-04-01T07:29:21;10.63;;;5.77;;
3175;SDS011;1599;51.564;6.990;2023-04-01T07:35:13;13.50;;;7.07;;
3175;SDS011;1599;51.564;6.990;2023-04-01T07:41:13;9.20;;;6.10;;
3175;SDS011;1599;51.564;6.990;2023-04-01T07:44:06;7.77;;;5.50;;
3175;SDS011;1599;51.564;6.990;2023-04-01T07:49:16;16.33;;;6.97;;
3175;SDS011;1599;51.564;6.990;2023-04-01T07:54:37;12.03;;;7.23;;
3175;SDS011;1599;51.564;6.990;2023-04-01T07:57:38;10.53;;;6.47;;
3175;SDS011;1599;51.564;6.990;2023-04-01T08:00:18;11.00;;;6.73;;
3175;SDS011;1599;51.564;6.990;2023-04-01T08:06:06;13.10;;;8.70;;
3175;SDS011;1599;51.564;6.990;2023-04-01T08:14:18;18.90;;;8.70;;
3175;SDS011;1599;51.564;6.990;2023-04-01T08:22:27;16.47;;;9.00;;
3175;SDS011;1599;51.564;6.990;2023-04-01T08:24:56;16.80;;;10.43;;
3175;SDS011;1599;51.564;6.990;2023-04-01T08:27:31;17.53;;;10.30;;
3175;SDS011;1599;51.564;6.990;2023-04-01T08:30:02;19.90;;;10.23;;
3175;SDS011;1599;51.564;6.990;2023-04-01T08:32:34;16.80;;;10.43;;
3175;SDS011;1599;51.564;6.990;2023-04-01T08:38:01;22.50;;;13.47;;
3175;SDS011;1599;51.564;6.990;2023-04-01T09:36:13;21.57;;;12.00;;
3175;SDS011;1599;51.564;6.990;2023-04-01T09:41:51;19.83;;;12.40;;
3175;SDS011;1599;51.564;6.990;2023-04-01T09:49:55;20.33;;;12.07;;
3175;SDS011;1599;51.564;6.990;2023-04-01T09:52:29;22.80;;;11.70;;
3175;SDS011;1599;51.564;6.990;2023-04-01T09:55:19;18.80;;;11.23;;
3175;SDS011;1599;51.564;6.990;2023-04-01T10:06:58;21.83;;;14.20;;
3175;SDS011;1599;51.564;6.990;2023-04-01T10:10:03;18.53;;;12.13;;
3175;SDS011;1599;51.564;6.990;2023-04-01T10:27:04;11.83;;;6.83;;
3175;SDS011;1599;51.564;6.990;2023-04-01T10:32:16;11.13;;;6.60;;
3175;SDS011;1599;51.564;6.990;2023-04-01T10:46:22;10.90;;;7.73;;
3175;SDS011;1599;51.564;6.990;2023-04-01T10:51:49;9.73;;;6.57;;
3175;SDS011;1599;51.564;6.990;2023-04-01T10:54:58;8.87;;;6.37;;
3175;SDS011;1599;51.564;6.990;2023-04-01T11:12:48;9.47;;;5.57;;
3175;SDS011;1599;51.564;6.990;2023-04-01T11:15:36;10.53;;;6.27;;
3175;SDS011;1599;51.564;6.990;2023-04-01T14:28:49;15.00;;;9.57;;
3175;SDS011;1599;51.564;6.990;2023-04-01T21:15:38;8.20;;;5.77;;
3175;SDS011;1599;51.564;6.990;2023-04-01T21:21:22;6.50;;;4.80;;
3175;SDS011;1599;51.564;6.990;2023-04-01T21:34:42;7.90;;;5.30;;
3175;SDS011;1599;51.564;6.990;2023-04-01T22:05:25;8.73;;;5.87;;
3175;SDS011;1599;51.564;6.990;2023-04-01T22:32:16;8.57;;;6.23;;
3175;SDS011;1599;51.564;6.990;2023-04-01T22:35:10;9.03;;;5.87;;
3175;SDS011;1599;51.564;6.990;2023-04-01T22:38:13;8.60;;;5.83;;
3175;SDS011;1599;51.564;6.990;2023-04-01T22:57:05;8.27;;;5.67;;
3175;SDS011;1599;51.564;6.990;2023-04-01T23:00:26;7.60;;;5.50;;
3175;SDS011;1599;51.564;6.990;2023-04-01T23:06:23;10.80;;;5.60;;
3175;SDS011;1599;51.564;6.990;2023-04-01T23:09:46;7.00;;;5.57;;
3175;SDS011;1599;51.564;6.990;2023-04-01T23:12:22;8.77;;;5.70;;
3175;SDS011;1599;51.564;6.990;2023-04-01T23:14:59;8.40;;;5.90;;
3175;SDS011;1599;51.564;6.990;2023-04-01T23:23:09;9.50;;;7.10;;
3175;SDS011;1599;51.564;6.990;2023-04-01T23:26:31;9.10;;;6.20;;
3175;SDS011;1599;51.564;6.990;2023-04-01T23:29:37;6.57;;;4.73;;
3175;SDS011;1599;51.564;6.990;2023-04-01T23:32:43;7.73;;;5.27;;
3175;SDS011;1599;51.564;6.990;2023-04-01T23:42:38;8.90;;;5.70;;
3175;SDS011;1599;51.564;6.990;2023-04-01T23:48:38;6.53;;;5.13;;
3175;SDS011;1599;51.564;6.990;2023-04-01T23:51:46;7.93;;;5.23;;
3175;SDS011;1599;51.564;6.990;2023-04-01T23:55:00;8.97;;;6.30;;
